Nearby METAR Reports

 

EDNY - Friedrichshafen, Germany
Distance from station: ONO 32km
aktuell: 23.01.2017 19:20
Mist, geschlossene Wolkendecke
Mist, geschlossene Wolkendecke
 Wind von varies
Wind: varies 4 km/h
Temperatur: -5°C
Taupunkt: -6°C
Luftfeuchte: 93%
Luftdruck: 1023 hPa
Zusammenfassung: Mist
Clouds: geschlossene Wolkendecke
Visibility: 4 km
Cloud details: geschlossene Wolkendecke 122 m
2017/01/23 18:20 EDNY 231820Z VRB02KT 4200 BR OVC004 M05/M06 Q1023
LSZR - Rheineck/Altenrh, Switzerland
Distance from station: OSO 37km
aktuell: 23.01.2017 19:20
Mist, geschlossene Wolkendecke
Mist, geschlossene Wolkendecke
 Wind von O
Wind: O 7 km/h
Temperatur: -5°C
gefühlte Temperatur: -8°C
Taupunkt: -5°C
Luftfeuchte: 100%
Luftdruck: 1022 hPa
Zusammenfassung: Mist
Clouds: geschlossene Wolkendecke
Visibility: 3 km
Cloud details: geschlossene Wolkendecke 183 m
2017/01/23 18:20 LSZR 231820Z 10004KT 2800 BR OVC006 M05/M05 Q1022 NOSIG RMK N
LSMD - Dubendorf, Switzerland
Distance from station: SW 40km
aktuell: 23.01.2017 18:50
Mist, geschlossene Wolkendecke
Mist, geschlossene Wolkendecke
 Wind von varies
Wind: varies 2 km/h
Temperatur: -6°C
Taupunkt: -7°C
Luftfeuchte: 93%
Luftdruck: 1023 hPa
Zusammenfassung: Mist
Clouds: geschlossene Wolkendecke
Visibility: 7 miles
Cloud details: geschlossene Wolkendecke 152 m
2017/01/23 17:50 LSMD 231750Z AUTO VRB01KT 4300NDV BR OVC005 M06/M07 Q1023 RMK
 
LSZH - Zurich-Kloten (a, Switzerland
Distance from station: WSW 44km
aktuell: 23.01.2017 19:20
Mist, stark bewölkt
Mist, stark bewölkt
 Wind von N
Wind: N 6 km/h
Temperatur: -6°C
Taupunkt: -7°C
Luftfeuchte: 93%
Luftdruck: 1023 hPa
Zusammenfassung: Mist
Clouds: stark bewölkt
Visibility: 4 km
Cloud details: Few Clouds 91 m
stark bewölkt 183 m
2017/01/23 18:20 LSZH 231820Z 35003KT 320V030 3500 BR FEW003 BKN006 M06/M07 Q1023 NOSIG
LOIH - Hohenems-Dornbir, Austria
Distance from station: OSO 51km
aktuell: 31.10.2016 17:00
NOT Current
geschlossene Wolkendecke
geschlossene Wolkendecke
 Wind von calm
Wind: Windstill
Temperatur: 10°C
Taupunkt: 9°C
Luftfeuchte: 94%
Luftdruck: 1026 hPa
Clouds: geschlossene Wolkendecke
Cloud details: geschlossene Wolkendecke 305 m
2016/10/31 16:00 LOIH 311600Z 00000KT 10KM OVC010ST 10/09 Q1026 RMK OVC
LSME - Emmen, Switzerland
Distance from station: SW 82km
aktuell: 23.01.2017 18:50
Mist, geschlossene Wolkendecke
Mist, geschlossene Wolkendecke
 Wind von NNO
Wind: NNO 9 km/h
Temperatur: -5°C
gefühlte Temperatur: -9°C
Taupunkt: -6°C
Luftfeuchte: 93%
Luftdruck: 1023 hPa
Zusammenfassung: Mist
Clouds: geschlossene Wolkendecke
Visibility: 5 miles
Cloud details: geschlossene Wolkendecke 91 m
2017/01/23 17:50 LSME 231750Z AUTO 03005KT 3200NDV BR OVC003 M05/M06 Q1023 RMK
 
LSZC - Buochs, Switzerland
Distance from station: SW 89km
aktuell: 23.01.2017 19:20
Mist, stark bewölkt
Mist, stark bewölkt
 Wind von varies
Wind: varies 9 km/h
Temperatur: -4°C
gefühlte Temperatur: -8°C
Taupunkt: -4°C
Luftfeuchte: 100%
Luftdruck: 1023 hPa
Zusammenfassung: Mist
Clouds: stark bewölkt
Visibility: 5 km
Cloud details: stark bewölkt 183 m
2017/01/23 18:20 LSZC 231820Z AUTO VRB05KT 4800 BR BKN006 M04/M04 Q1023
ETHL - Laupheim (ger-Ar, Germany
Distance from station: NO 92km
aktuell: 23.01.2017 19:20
Mist
Mist
 Wind von S
Wind: S 2 km/h
Temperatur: -10°C
Taupunkt: -11°C
Luftfeuchte: 92%
Luftdruck: 1022 hPa
Zusammenfassung: Mist
Visibility: 4 km
2017/01/23 18:20 ETHL 231820Z 19001KT 4000 BR M10/M11 Q1022 GRN GRN BECMG YLO
EDJA - Memmingen Allgau, Germany
Distance from station: ONO 95km
aktuell: 23.01.2017 19:20
Mist, teilweise bewölkt
Mist, teilweise bewölkt
 Wind von SSO
Wind: SSO 4 km/h
Temperatur: -12°C
Taupunkt: -14°C
Luftfeuchte: 85%
Luftdruck: 1021 hPa
Zusammenfassung: Mist
Clouds: teilweise bewölkt
Visibility: 4 km
2017/01/23 18:20 EDJA 231820Z 15002KT 3900 BR NSC M12/M14 Q1021
 
LSMA - Alpnach, Switzerland
Distance from station: SW 95km
aktuell: 23.01.2017 18:50
Mist, geschlossene Wolkendecke
Mist, geschlossene Wolkendecke
 Wind von S
Wind: S 11 km/h
Temperatur: -5°C
gefühlte Temperatur: -9°C
Taupunkt: -5°C
Luftfeuchte: 100%
Luftdruck: 1023 hPa
Zusammenfassung: Mist
Clouds: geschlossene Wolkendecke
Visibility: 8 miles
Cloud details: geschlossene Wolkendecke 152 m
2017/01/23 17:50 LSMA 231750Z AUTO 19006KT 5000NDV BR OVC005 M05/M05 Q1023 RMK